createdAt,value
2024-03-16T00:01:28.239Z,3.10
2024-03-16T00:04:11.661Z,3.13
2024-03-16T00:09:54.049Z,3.20
2024-03-16T00:12:26.048Z,3.20
2024-03-16T00:14:57.604Z,3.13
2024-03-16T00:20:57.638Z,3.33
2024-03-16T00:23:30.092Z,3.50
2024-03-16T00:29:19.165Z,3.30
2024-03-16T00:31:50.774Z,3.15
2024-03-16T00:34:22.371Z,3.20
2024-03-16T00:40:08.777Z,3.60
2024-03-16T00:42:40.561Z,3.33
2024-03-16T00:45:12.653Z,3.28
2024-03-16T00:51:02.315Z,3.25
2024-03-16T00:53:33.942Z,2.70
2024-03-16T00:59:33.634Z,3.30
2024-03-16T01:02:05.339Z,2.92
2024-03-16T01:04:38.159Z,3.47
2024-03-16T01:12:49.931Z,3.22
2024-03-16T01:15:24.932Z,4.00
2024-03-16T01:17:56.463Z,4.05
2024-03-16T01:20:29.312Z,3.95
2024-03-16T01:23:01.833Z,3.63
2024-03-16T01:25:33.392Z,3.65
2024-03-16T01:28:05.574Z,4.00
2024-03-16T01:30:39.744Z,4.50
2024-03-16T01:33:11.599Z,4.30
2024-03-16T01:35:44.315Z,4.57
2024-03-16T01:38:15.837Z,5.18
2024-03-16T01:40:47.916Z,5.38
2024-03-16T01:43:19.798Z,5.32
2024-03-16T01:49:21.864Z,4.70
2024-03-16T01:51:53.338Z,4.07
2024-03-16T02:27:49.874Z,1.60
2024-03-16T02:30:24.235Z,2.10
2024-03-16T02:32:55.754Z,1.98
2024-03-16T02:35:28.302Z,1.90
2024-03-16T02:37:59.912Z,1.67
2024-03-16T02:40:31.843Z,1.95
2024-03-16T02:43:04.623Z,1.85
2024-03-16T03:21:09.656Z,2.40
2024-03-16T03:23:41.106Z,2.58
2024-03-16T03:26:20.605Z,2.60
2024-03-16T03:28:51.956Z,2.42
2024-03-16T03:31:23.330Z,2.22
2024-03-16T03:33:54.790Z,2.90
2024-03-16T03:42:49.579Z,1.60
2024-03-16T03:45:39.269Z,1.55
2024-03-16T03:50:59.769Z,1.30
2024-03-16T03:53:33.347Z,1.63
2024-03-16T03:59:15.853Z,1.50
2024-03-16T04:01:48.356Z,1.17
2024-03-16T04:04:19.818Z,1.38
2024-03-16T04:10:10.437Z,1.10
2024-03-16T04:12:41.935Z,1.20
2024-03-16T04:15:16.236Z,1.23
2024-03-16T04:21:07.444Z,1.00
2024-03-16T04:23:38.945Z,1.15
2024-03-16T04:26:22.386Z,1.70
2024-03-16T04:28:54.066Z,1.60
2024-03-16T04:31:28.257Z,1.63
2024-03-16T04:33:59.688Z,1.23
2024-03-16T04:39:45.044Z,1.10
2024-03-16T04:42:16.664Z,1.30
2024-03-16T04:44:48.121Z,1.23
2024-03-16T04:50:49.240Z,1.13
2024-03-16T04:53:20.822Z,0.95
2024-03-16T04:56:05.355Z,1.20
2024-03-16T04:58:36.779Z,1.40
2024-03-16T05:01:10.910Z,1.20
2024-03-16T05:03:42.395Z,1.33
2024-03-16T05:27:21.391Z,0.68
2024-03-16T05:29:52.976Z,0.80
2024-03-16T05:32:24.521Z,1.20
2024-03-16T05:34:56.722Z,1.15
2024-03-16T05:44:32.633Z,0.68
2024-03-16T05:47:34.809Z,0.63
2024-03-16T05:50:09.982Z,0.80
2024-03-16T05:52:41.784Z,0.93
2024-03-16T05:55:13.254Z,0.63
2024-03-16T06:01:02.696Z,0.38
2024-03-16T06:03:34.740Z,0.60
2024-03-16T06:06:33.619Z,0.70
2024-03-16T06:09:07.821Z,0.80
2024-03-16T06:11:41.420Z,0.63
2024-03-16T06:14:13.506Z,0.65
2024-03-16T06:20:04.587Z,0.68
2024-03-16T06:22:38.655Z,0.55
2024-03-16T06:25:12.077Z,0.80
2024-03-16T06:31:01.377Z,0.70
2024-03-16T06:33:33.370Z,0.60
2024-03-16T06:39:15.097Z,1.20
2024-03-16T06:41:46.969Z,0.82
2024-03-16T06:44:18.613Z,0.75
2024-03-16T06:47:15.670Z,0.60
2024-03-16T06:49:47.148Z,0.60
2024-03-16T06:52:25.786Z,1.20
2024-03-16T06:55:00.077Z,0.70
2024-03-16T06:57:44.239Z,0.68
2024-03-16T07:00:16.969Z,0.65
2024-03-16T07:02:48.526Z,0.60
2024-03-16T07:05:19.991Z,0.60
2024-03-16T07:15:14.338Z,0.60
2024-03-16T07:20:56.033Z,0.40
2024-03-16T07:23:29.873Z,0.68
2024-03-16T07:26:01.538Z,0.60
2024-03-16T07:28:36.717Z,0.70
2024-03-16T07:31:10.159Z,0.60
2024-03-16T07:33:41.820Z,0.70
2024-03-16T07:40:05.689Z,0.52
2024-03-16T07:42:42.808Z,0.50
2024-03-16T07:45:15.958Z,0.73
2024-03-16T07:51:48.531Z,0.75
2024-03-16T07:54:20.133Z,0.70
2024-03-16T08:00:13.829Z,0.65
2024-03-16T08:02:45.376Z,0.75
2024-03-16T08:05:17.024Z,0.77
2024-03-16T08:10:56.433Z,0.55
2024-03-16T08:13:28.931Z,0.75
2024-03-16T08:19:21.206Z,0.50
2024-03-16T08:21:53.013Z,0.50
2024-03-16T08:24:24.442Z,0.95
2024-03-16T08:30:05.353Z,1.48
2024-03-16T08:32:37.100Z,0.70
2024-03-16T08:35:11.914Z,0.95
2024-03-16T08:41:06.291Z,0.70
2024-03-16T08:43:37.922Z,0.80
2024-03-16T08:49:27.351Z,0.68
2024-03-16T08:52:02.281Z,0.80
2024-03-16T08:54:34.251Z,0.73
2024-03-16T09:00:22.738Z,0.70
2024-03-16T09:02:54.291Z,1.00
2024-03-16T09:05:27.109Z,0.82
2024-03-16T09:08:02.387Z,0.70
2024-03-16T09:10:38.641Z,1.00
2024-03-16T09:13:11.742Z,1.05
2024-03-16T09:19:00.760Z,0.95
2024-03-16T09:21:32.353Z,0.73
2024-03-16T09:24:10.537Z,0.70
2024-03-16T09:33:22.019Z,0.68
2024-03-16T09:39:12.143Z,0.63
2024-03-16T09:41:47.893Z,0.75
